Time;durP1;ratioP1;P1;durP2;ratioP2;P2;SDS_P1;SDS_P2;PMS_P1;PMS_P2;Temp;Humidity;BMP_temperature;BMP_pressure;BME280_temperature;BME280_humidity;BME280_pressure;Samples;Min_cycle;Max_cycle;Signal;HPM_P1;HPM_P2
2021/03/10 00:00:51;;;;;;;53.10;22.95;;;77.00;1484.80;;;;;;5040839;28;20483;-60
2021/03/10 00:03:17;;;;;;;42.67;18.10;;;77.00;1484.80;;;;;;5042442;28;20057;-60
2021/03/10 00:05:42;;;;;;;33.33;13.80;;;76.90;1510.40;;;;;;5023646;28;20387;-59
2021/03/10 00:08:08;;;;;;;26.27;11.43;;;76.90;1510.40;;;;;;5041614;28;20104;-59
2021/03/10 00:10:34;;;;;;;25.00;11.13;;;76.90;1536.00;;;;;;5050317;28;20037;-59
2021/03/10 00:13:00;;;;;;;19.98;10.10;;;77.00;1510.40;;;;;;5052770;28;20469;-59
2021/03/10 00:15:25;;;;;;;17.45;9.23;;;77.00;1510.40;;;;;;5053436;28;20036;-59
2021/03/10 00:17:51;;;;;;;18.60;9.07;;;77.00;1484.80;;;;;;5056629;28;20037;-59
2021/03/10 00:20:18;;;;;;;20.02;8.48;;;77.10;1484.80;;;;;;5056849;28;20106;-59
2021/03/10 00:22:44;;;;;;;14.75;7.93;;;77.10;1484.80;;;;;;5056668;28;20075;-60
2021/03/10 00:25:10;;;;;;;14.85;7.40;;;77.10;1459.20;;;;;;5056349;28;20037;-59
2021/03/10 00:27:36;;;;;;;15.57;7.32;;;77.10;1459.20;;;;;;5056513;28;20116;-59
2021/03/10 00:30:05;;;;;;;15.65;7.65;;;77.10;1433.60;;;;;;5056985;28;20103;-59
2021/03/10 00:32:31;;;;;;;12.70;6.90;;;77.20;1433.60;;;;;;5038040;28;20075;-59
2021/03/10 00:34:59;;;;;;;12.20;7.05;;;77.20;1433.60;;;;;;5038426;28;20079;-59
2021/03/10 00:37:25;;;;;;;13.88;7.03;;;77.20;1433.60;;;;;;5056669;28;20021;-59
2021/03/10 00:39:51;;;;;;;19.75;9.00;;;77.30;1433.60;;;;;;5056415;28;20524;-59
2021/03/10 00:42:17;;;;;;;15.57;7.85;;;77.30;1433.60;;;;;;5056142;28;20029;-59
2021/03/10 00:44:43;;;;;;;18.15;8.80;;;77.30;1433.60;;;;;;5056027;28;20587;-59
2021/03/10 00:47:09;;;;;;;22.40;11.55;;;77.30;1408.00;;;;;;5056460;28;20052;-59
2021/03/10 00:49:37;;;;;;;16.63;9.05;;;77.30;1433.60;;;;;;5056137;28;20433;-59
2021/03/10 00:52:03;;;;;;;13.98;7.18;;;77.30;1433.60;;;;;;5056251;28;20074;-59
2021/03/10 00:54:28;;;;;;;11.43;6.10;;;77.20;1433.60;;;;;;5056402;28;20029;-59
2021/03/10 00:56:54;;;;;;;11.30;6.32;;;77.20;1433.60;;;;;;5055349;28;20466;-59
2021/03/10 00:59:20;;;;;;;11.73;6.47;;;77.20;1433.60;;;;;;5055942;28;20025;-59
2021/03/10 01:01:46;;;;;;;15.90;7.05;;;77.10;1433.60;;;;;;5056330;28;20068;-59
2021/03/10 01:04:12;;;;;;;16.65;8.85;;;77.20;1433.60;;;;;;5055862;28;20037;-59
2021/03/10 01:06:37;;;;;;;18.30;8.10;;;77.10;1433.60;;;;;;5056193;28;20106;-59
2021/03/10 01:09:07;;;;;;;13.73;7.90;;;77.10;1459.20;;;;;;5056799;28;20033;-60
2021/03/10 01:11:33;;;;;;;14.75;8.55;;;77.10;1459.20;;;;;;5056603;28;20096;-59
2021/03/10 01:13:59;;;;;;;13.98;7.30;;;77.10;1459.20;;;;;;5056459;28;20036;-59
2021/03/10 01:16:25;;;;;;;14.30;6.80;;;77.10;1459.20;;;;;;5056133;28;20025;-59
2021/03/10 01:18:51;;;;;;;13.80;6.80;;;77.10;1433.60;;;;;;5056320;28;20071;-59
2021/03/10 01:21:17;;;;;;;10.55;6.18;;;77.00;1433.60;;;;;;5059340;28;20090;-60
2021/03/10 01:23:42;;;;;;;12.07;6.57;;;77.00;1459.20;;;;;;5059363;28;20037;-66
2021/03/10 01:26:08;;;;;;;12.05;6.68;;;77.00;1459.20;;;;;;5058896;28;20056;-60
2021/03/10 01:28:34;;;;;;;15.82;8.13;;;77.00;1459.20;;;;;;5058278;28;20098;-61
2021/03/10 01:31:00;;;;;;;22.45;11.32;;;76.90;1484.80;;;;;;5057047;28;20462;-59
2021/03/10 01:33:25;;;;;;;19.42;10.48;;;76.90;1459.20;;;;;;5056067;28;20058;-59
2021/03/10 01:35:51;;;;;;;17.98;10.02;;;76.80;1459.20;;;;;;5054216;28;20444;-58
2021/03/10 01:38:17;;;;;;;16.23;9.18;;;52.10;1484.80;;;;;;5053569;28;20060;-59
2021/03/10 01:40:43;;;;;;;12.48;7.28;;;52.10;1484.80;;;;;;5054043;28;20037;-59
2021/03/10 01:43:09;;;;;;;14.60;7.70;;;52.10;1484.80;;;;;;5053455;28;20477;-59
2021/03/10 01:45:36;;;;;;;11.13;6.43;;;52.10;1484.80;;;;;;5053878;28;20490;-60
2021/03/10 01:48:05;;;;;;;14.13;6.75;;;52.00;1484.80;;;;;;5054192;28;20431;-59
2021/03/10 01:50:31;;;;;;;13.77;6.38;;;52.00;1484.80;;;;;;5053624;28;20032;-59
2021/03/10 01:52:58;;;;;;;12.07;6.63;;;52.00;1484.80;;;;;;5054102;28;20029;-59
2021/03/10 01:55:24;;;;;;;11.98;7.18;;;52.00;1510.40;;;;;;5021164;28;20115;-58
2021/03/10 01:57:50;;;;;;;13.60;7.32;;;52.00;1484.80;;;;;;5020531;28;20036;-59
2021/03/10 02:00:18;;;;;;;13.63;7.35;;;52.00;1484.80;;;;;;5052213;28;20048;-59
2021/03/10 02:02:44;;;;;;;13.63;6.80;;;52.10;1484.80;;;;;;5054793;28;20136;-58
2021/03/10 02:05:14;;;;;;;13.23;7.57;;;52.10;1484.80;;;;;;5054925;28;20123;-58
2021/03/10 02:07:51;;;;;;;13.25;7.30;;;52.10;1484.80;;;;;;5055160;28;20493;-58
2021/03/10 02:10:29;;;;;;;16.52;8.70;;;76.80;1459.20;;;;;;5054263;28;20021;-58
2021/03/10 02:13:07;;;;;;;15.20;7.47;;;76.80;1484.80;;;;;;5055082;28;20025;-59
2021/03/10 02:15:54;;;;;;;12.18;6.70;;;76.80;1484.80;;;;;;5055020;28;20036;-59
2021/03/10 02:18:26;;;;;;;13.70;7.32;;;52.10;1459.20;;;;;;5054641;28;20020;-59
2021/03/10 02:20:58;;;;;;;12.35;7.10;;;76.80;1484.80;;;;;;5054701;28;20433;-59
2021/03/10 02:23:49;;;;;;;13.57;6.90;;;76.80;1484.80;;;;;;5054658;28;20058;-59
2021/03/10 02:26:35;;;;;;;12.40;6.43;;;76.80;1484.80;;;;;;5053891;28;20466;-58
2021/03/10 02:29:07;;;;;;;14.98;6.70;;;76.80;1484.80;;;;;;5053915;28;20052;-58
2021/03/10 02:31:36;;;;;;;13.60;6.82;;;76.90;1459.20;;;;;;5053854;28;20021;-58
2021/03/10 02:34:03;;;;;;;11.65;6.82;;;76.80;1459.20;;;;;;5035220;28;20025;-59
2021/03/10 02:36:30;;;;;;;13.45;6.93;;;76.90;1459.20;;;;;;5052967;28;20147;-59
2021/03/10 02:39:00;;;;;;;14.85;6.75;;;76.80;1459.20;;;;;;5050575;28;20486;-59
2021/03/10 02:41:28;;;;;;;10.90;6.35;;;76.80;1459.20;;;;;;5052240;28;20032;-59
2021/03/10 02:43:55;;;;;;;12.15;7.03;;;76.80;1459.20;;;;;;5052537;28;20041;-59
2021/03/10 02:46:21;;;;;;;13.38;6.50;;;76.90;1459.20;;;;;;5053796;28;20375;-59
2021/03/10 02:48:47;;;;;;;11.63;7.07;;;76.90;1433.60;;;;;;5054243;28;20028;-59
2021/03/10 02:51:17;;;;;;;10.68;6.22;;;76.90;1433.60;;;;;;5054630;28;20031;-59
2021/03/10 02:53:43;;;;;;;12.80;6.30;;;76.90;1459.20;;;;;;5054107;28;20025;-59
2021/03/10 02:56:11;;;;;;;12.95;6.35;;;76.80;1459.20;;;;;;5053771;28;20104;-59
2021/03/10 02:58:40;;;;;;;12.90;7.03;;;76.80;1459.20;;;;;;5053625;28;20029;-59
2021/03/10 03:01:07;;;;;;;12.57;6.65;;;76.80;1484.80;;;;;;5053946;28;20041;-59
2021/03/10 03:03:34;;;;;;;11.88;6.35;;;76.80;1484.80;;;;;;5054004;28;20074;-59
2021/03/10 03:05:59;;;;;;;12.70;6.47;;;76.80;1484.80;;;;;;5054108;28;20025;-59
2021/03/10 03:08:26;;;;;;;12.38;6.35;;;76.80;1484.80;;;;;;5053800;28;20027;-59
2021/03/10 03:10:53;;;;;;;14.25;6.80;;;76.80;1484.80;;;;;;5054066;28;20025;-59
2021/03/10 03:13:20;;;;;;;13.95;8.13;;;76.80;1484.80;;;;;;5053962;28;20486;-59
2021/03/10 03:15:52;;;;;;;19.73;10.30;;;76.80;1484.80;;;;;;5053990;28;20045;-59
2021/03/10 03:18:19;;;;;;;20.73;10.35;;;76.80;1484.80;;;;;;5053427;28;20107;-59
2021/03/10 03:20:45;;;;;;;15.55;8.57;;;76.80;1484.80;;;;;;5053696;28;20127;-59
2021/03/10 03:23:10;;;;;;;14.40;7.55;;;76.80;1484.80;;;;;;5053897;28;20494;-59
2021/03/10 03:25:40;;;;;;;13.40;8.13;;;76.80;1484.80;;;;;;5053500;28;20025;-59
2021/03/10 03:28:09;;;;;;;15.15;7.97;;;76.80;1459.20;;;;;;5053346;28;20470;-59
2021/03/10 03:30:37;;;;;;;15.48;7.43;;;76.80;1484.80;;;;;;5053478;28;20098;-59
2021/03/10 03:33:14;;;;;;;14.60;7.65;;;76.80;1484.80;;;;;;5053602;28;20052;-60
2021/03/10 03:35:42;;;;;;;15.45;7.45;;;76.80;1484.80;;;;;;5053421;28;20075;-59
2021/03/10 03:38:08;;;;;;;13.45;7.47;;;52.10;1484.80;;;;;;5053336;28;20025;-59
2021/03/10 03:40:35;;;;;;;14.63;7.20;;;52.10;1484.80;;;;;;5053336;28;20078;-59
2021/03/10 03:43:01;;;;;;;12.07;7.05;;;52.10;1484.80;;;;;;5053428;28;20454;-59
2021/03/10 03:45:27;;;;;;;14.95;7.28;;;52.00;1510.40;;;;;;5053292;28;20033;-59
2021/03/10 03:47:54;;;;;;;11.68;6.90;;;52.00;1510.40;;;;;;5053194;28;20123;-59
2021/03/10 03:50:25;;;;;;;12.13;6.80;;;52.00;1510.40;;;;;;5052027;28;20032;-59
2021/03/10 03:52:51;;;;;;;12.38;6.88;;;52.00;1510.40;;;;;;5053518;28;20492;-59
2021/03/10 03:55:17;;;;;;;12.57;7.13;;;52.10;1510.40;;;;;;5053097;28;20029;-59
2021/03/10 03:57:43;;;;;;;15.50;7.25;;;51.90;1510.40;;;;;;5053249;28;20493;-59
2021/03/10 04:00:13;;;;;;;14.45;7.38;;;51.80;1510.40;;;;;;5052993;28;20059;-59
2021/03/10 04:02:39;;;;;;;13.43;7.32;;;51.70;1536.00;;;;;;5053096;28;20437;-59
2021/03/10 04:05:06;;;;;;;13.68;7.25;;;51.70;1536.00;;;;;;5048819;28;20042;-59
2021/03/10 04:07:33;;;;;;;17.85;8.65;;;51.70;1536.00;;;;;;5033266;28;20025;-59
2021/03/10 04:09:58;;;;;;;20.67;10.55;;;51.70;1536.00;;;;;;5032938;28;20037;-58
2021/03/10 04:12:24;;;;;;;22.67;11.23;;;51.70;1536.00;;;;;;5032731;28;20037;-59
2021/03/10 04:14:50;;;;;;;16.50;8.45;;;51.70;1561.60;;;;;;5033187;28;20036;-60
2021/03/10 04:17:16;;;;;;;16.77;9.48;;;51.60;1561.60;;;;;;5033394;28;20490;-59
2021/03/10 04:19:42;;;;;;;16.90;8.68;;;51.50;1587.20;;;;;;5032860;28;20025;-59
2021/03/10 04:22:08;;;;;;;19.58;9.80;;;51.50;1587.20;;;;;;5032797;28;20068;-59
2021/03/10 04:24:34;;;;;;;27.15;12.55;;;51.40;1587.20;;;;;;5033003;28;20103;-59
2021/03/10 04:27:00;;;;;;;15.88;8.55;;;51.30;1612.80;;;;;;5033142;28;20471;-59
2021/03/10 04:29:25;;;;;;;13.75;8.25;;;51.30;1612.80;;;;;;5033228;28;20600;-59
2021/03/10 04:31:51;;;;;;;15.13;7.65;;;51.20;1612.80;;;;;;5032935;28;20084;-59
2021/03/10 04:34:17;;;;;;;13.55;8.23;;;51.20;1612.80;;;;;;5034857;28;20029;-60
2021/03/10 04:36:42;;;;;;;12.43;7.80;;;26.50;1612.80;;;;;;5036478;28;20104;-62
2021/03/10 04:39:08;;;;;;;16.42;8.52;;;26.50;1612.80;;;;;;5034802;28;20075;-59
2021/03/10 04:41:34;;;;;;;14.95;7.80;;;26.40;1612.80;;;;;;5034347;28;20133;-60
2021/03/10 04:44:00;;;;;;;13.50;7.82;;;26.40;1612.80;;;;;;5032983;28;20041;-59
2021/03/10 04:46:25;;;;;;;13.93;8.30;;;26.30;1638.40;;;;;;5032750;28;20032;-59
2021/03/10 04:48:51;;;;;;;14.52;8.27;;;26.20;1638.40;;;;;;5032843;28;20036;-59
2021/03/10 04:51:17;;;;;;;16.13;8.57;;;26.10;1638.40;;;;;;5033014;28;20079;-59
2021/03/10 04:53:42;;;;;;;15.65;8.50;;;26.10;1638.40;;;;;;5032878;28;20463;-59
2021/03/10 04:56:08;;;;;;;14.95;8.02;;;26.10;1664.00;;;;;;5032476;28;20030;-59
2021/03/10 04:58:34;;;;;;;16.70;8.45;;;26.00;1664.00;;;;;;5032830;28;20030;-59
2021/03/10 05:00:59;;;;;;;15.18;8.90;;;26.00;1664.00;;;;;;5032494;28;20507;-59
2021/03/10 05:03:25;;;;;;;15.52;8.48;;;25.90;1664.00;;;;;;5035433;28;20026;-59
2021/03/10 05:05:51;;;;;;;14.60;8.00;;;25.90;1664.00;;;;;;5036395;28;20061;-59
2021/03/10 05:08:16;;;;;;;15.25;7.85;;;25.90;1689.60;;;;;;5036127;28;20031;-59
2021/03/10 05:10:42;;;;;;;16.70;7.63;;;25.90;1664.00;;;;;;5036564;28;20055;-59
2021/03/10 05:13:08;;;;;;;14.02;7.97;;;25.80;1689.60;;;;;;5036162;28;20025;-59
2021/03/10 05:15:33;;;;;;;17.70;8.13;;;25.90;1689.60;;;;;;5036361;28;20040;-59
2021/03/10 05:17:59;;;;;;;21.08;9.30;;;25.90;1689.60;;;;;;5036127;28;20356;-59
2021/03/10 05:20:25;;;;;;;16.75;9.02;;;25.90;1689.60;;;;;;5036078;28;20044;-60
2021/03/10 05:22:50;;;;;;;15.15;8.80;;;25.90;1664.00;;;;;;5036183;28;20383;-59
2021/03/10 05:25:16;;;;;;;32.60;18.75;;;26.00;1664.00;;;;;;5035863;28;20095;-59
2021/03/10 05:27:42;;;;;;;25.50;14.23;;;26.00;1689.60;;;;;;5036063;28;20053;-59
2021/03/10 05:30:09;;;;;;;21.92;10.43;;;26.00;1664.00;;;;;;5035678;28;20467;-59
2021/03/10 05:32:36;;;;;;;17.88;10.50;;;26.00;1664.00;;;;;;5036061;28;20025;-59
2021/03/10 05:35:02;;;;;;;17.38;10.10;;;26.00;1664.00;;;;;;5034004;28;20037;-59
2021/03/10 05:37:28;;;;;;;16.33;9.07;;;26.10;1664.00;;;;;;5033943;28;20121;-59
2021/03/10 05:39:54;;;;;;;15.57;9.80;;;26.10;1664.00;;;;;;5034764;28;20104;-59
2021/03/10 05:42:20;;;;;;;17.67;9.68;;;26.10;1664.00;;;;;;5035416;28;20068;-59
2021/03/10 05:44:50;;;;;;;16.63;9.30;;;26.10;1664.00;;;;;;5035520;28;20037;-60
2021/03/10 05:47:17;;;;;;;19.35;9.30;;;26.10;1664.00;;;;;;5037198;28;20112;-59
2021/03/10 05:49:44;;;;;;;20.00;8.82;;;26.10;1664.00;;;;;;5043232;28;20033;-59
2021/03/10 05:52:11;;;;;;;16.33;9.00;;;26.20;1664.00;;;;;;5043454;28;20467;-60
2021/03/10 05:54:38;;;;;;;16.38;9.02;;;26.20;1664.00;;;;;;5045182;28;20033;-59
2021/03/10 05:57:05;;;;;;;15.70;9.10;;;26.20;1664.00;;;;;;5040517;28;20060;-59
2021/03/10 05:59:30;;;;;;;15.95;9.30;;;26.30;1638.40;;;;;;5037033;28;20088;-59
2021/03/10 06:01:56;;;;;;;16.15;9.23;;;26.40;1638.40;;;;;;5035375;28;20123;-59
2021/03/10 06:04:24;;;;;;;19.85;10.93;;;26.50;1638.40;;;;;;5015789;28;20060;-59
2021/03/10 06:06:49;;;;;;;18.15;9.57;;;51.20;1638.40;;;;;;5044437;28;20540;-59
2021/03/10 06:09:16;;;;;;;19.85;9.90;;;51.40;1638.40;;;;;;5055053;28;20032;-59
2021/03/10 06:12:02;;;;;;;18.45;10.35;;;51.50;1612.80;;;;;;5047790;28;20025;-59
2021/03/10 06:14:29;;;;;;;20.23;10.60;;;51.60;1612.80;;;;;;5038841;28;20021;-59
2021/03/10 06:17:09;;;;;;;19.60;10.35;;;51.70;1612.80;;;;;;5040372;28;20024;-60
2021/03/10 06:19:45;;;;;;;28.02;13.43;;;51.80;1587.20;;;;;;5034676;28;20030;-60
2021/03/10 06:22:12;;;;;;;25.17;12.25;;;51.90;1587.20;;;;;;5011455;28;20120;-60
2021/03/10 06:24:38;;;;;;;25.52;11.85;;;51.90;1561.60;;;;;;5025482;28;20037;-60
2021/03/10 06:27:04;;;;;;;22.92;11.05;;;51.90;1561.60;;;;;;5027283;28;20037;-59
2021/03/10 06:29:30;;;;;;;18.42;10.63;;;52.00;1561.60;;;;;;5035319;28;20030;-60
2021/03/10 06:32:03;;;;;;;20.40;11.35;;;52.10;1536.00;;;;;;5034809;28;20029;-60
2021/03/10 06:34:28;;;;;;;22.58;12.75;;;76.80;1536.00;;;;;;5034315;28;20471;-57
2021/03/10 06:36:55;;;;;;;27.00;14.32;;;76.90;1510.40;;;;;;5034582;28;20033;-63
2021/03/10 06:39:38;;;;;;;25.35;14.07;;;77.30;1484.80;;;;;;5040461;28;20061;-62
2021/03/10 06:42:15;;;;;;;33.87;17.67;;;102.80;1408.00;;;;;;5033901;28;20029;-58
2021/03/10 06:44:52;;;;;;;41.33;19.92;;;103.30;1356.80;;;;;;5030671;28;20748;-62
2021/03/10 06:47:18;;;;;;;47.70;24.20;;;128.40;1331.20;;;;;;5026002;28;20033;-63
2021/03/10 06:49:52;;;;;;;44.42;22.90;;;128.30;1331.20;;;;;;5031465;28;20057;-63
2021/03/10 06:52:18;;;;;;;35.20;17.13;;;128.80;1305.60;;;;;;5033427;28;20029;-63
2021/03/10 06:54:54;;;;;;;36.42;19.15;;;179.60;1152.00;;;;;;5031862;28;20056;-64
2021/03/10 06:57:20;;;;;;;38.17;21.75;;;230.50;998.40;;;;;;5031583;28;20107;-67
2021/03/10 06:59:49;;;;;;;34.35;19.27;;;256.10;921.60;;;;;;5031371;28;20069;-67
2021/03/10 07:02:15;;;;;;;26.60;14.63;;;282.10;870.40;;;;;;5031537;28;20490;-62
2021/03/10 07:04:46;;;;;;;23.13;15.00;;;308.00;768.00;;;;;;5031445;28;20033;-61
2021/03/10 07:07:14;;;;;;;26.83;16.17;;;358.50;716.80;;;;;;5033630;28;20405;-65
2021/03/10 07:09:40;;;;;;;20.33;13.57;;;384.00;665.60;;;;;;5032020;28;20040;-62
2021/03/10 07:12:08;;;;;;;25.30;14.85;;;409.60;665.60;;;;;;5028485;28;20014;-62
2021/03/10 07:14:35;;;;;;;22.75;14.30;;;410.50;614.40;;;;;;5032155;28;20099;-63
2021/03/10 07:17:04;;;;;;;24.35;17.75;;;435.70;588.80;;;;;;5033189;28;20032;-62
2021/03/10 07:19:29;;;;;;;21.80;16.02;;;461.20;563.20;;;;;;5033527;28;20022;-62
2021/03/10 07:22:00;;;;;;;28.45;19.80;;;461.20;563.20;;;;;;5033688;28;20047;-63
2021/03/10 07:24:32;;;;;;;24.67;19.02;;;486.50;512.00;;;;;;5033631;28;20049;-66
2021/03/10 07:26:59;;;;;;;19.40;15.70;;;512.20;460.80;;;;;;5028478;28;20136;-58
2021/03/10 07:29:25;;;;;;;39.38;28.30;;;512.50;435.20;;;;;;5032349;28;20033;-59
2021/03/10 07:32:01;;;;;;;29.55;24.25;;;487.20;486.40;;;;;;5031109;28;20029;-68
2021/03/10 07:34:27;;;;;;;43.65;39.25;;;486.40;486.40;;;;;;5025257;28;20037;-68
2021/03/10 07:36:53;;;;;;;32.20;17.27;;;460.90;537.60;;;;;;5033315;28;20017;-68
2021/03/10 07:39:24;;;;;;;18.50;13.85;;;461.00;563.20;;;;;;5033952;28;20022;-70
2021/03/10 07:41:51;;;;;;;17.75;12.75;;;460.90;563.20;;;;;;5033452;28;20022;-66
2021/03/10 07:44:19;;;;;;;17.40;11.38;;;461.00;537.60;;;;;;5033266;28;20040;-66
2021/03/10 07:46:46;;;;;;;18.88;11.20;;;461.10;512.00;;;;;;5033519;28;20045;-68
2021/03/10 07:49:24;;;;;;;24.83;19.58;;;461.20;537.60;;;;;;5033113;28;20029;-65
2021/03/10 07:52:02;;;;;;;20.02;15.50;;;461.30;537.60;;;;;;5041968;28;20152;-64
2021/03/10 07:54:28;;;;;;;22.52;16.20;;;486.90;486.40;;;;;;5038188;28;20076;-64
2021/03/10 07:57:10;;;;;;;32.42;26.48;;;486.80;486.40;;;;;;5040416;28;20017;-63
2021/03/10 07:59:37;;;;;;;17.25;11.68;;;461.50;486.40;;;;;;5040641;28;20124;-64
2021/03/10 08:02:05;;;;;;;20.30;15.57;;;487.00;460.80;;;;;;5037652;28;20035;-59
2021/03/10 08:04:31;;;;;;;15.38;11.57;;;512.30;435.20;;;;;;5044619;28;20033;-62
2021/03/10 08:06:58;;;;;;;14.13;11.88;;;538.50;384.00;;;;;;5032446;28;20097;-62
2021/03/10 08:09:26;;;;;;;13.93;10.23;;;564.00;384.00;;;;;;5032853;28;20113;-59
2021/03/10 08:12:11;;;;;;;16.60;12.00;;;588.80;358.40;;;;;;5032835;28;20024;-64
2021/03/10 08:14:47;;;;;;;15.55;10.95;;;614.60;332.80;;;;;;5031586;28;20080;-59
2021/03/10 08:17:26;;;;;;;16.02;13.05;;;615.10;307.20;;;;;;5031079;28;20040;-63
2021/03/10 08:20:01;;;;;;;15.18;12.20;;;640.00;307.20;;;;;;5030538;28;20033;-62
2021/03/10 08:22:29;;;;;;;18.80;15.82;;;640.50;281.60;;;;;;5032472;28;20360;-61
2021/03/10 08:24:59;;;;;;;14.15;10.80;;;691.20;256.00;;;;;;5032569;28;20037;-61
2021/03/10 08:27:34;;;;;;;12.00;9.15;;;666.50;230.40;;;;;;5032385;28;20414;-62
2021/03/10 08:30:01;;;;;;;12.13;8.82;;;716.90;230.40;;;;;;5040357;28;20056;-59
2021/03/10 08:32:31;;;;;;;12.68;9.98;;;717.70;204.80;;;;;;5036462;28;20517;-58
2021/03/10 08:35:06;;;;;;;11.32;9.20;;;742.90;204.80;;;;;;5039879;28;20028;-59
2021/03/10 08:37:31;;;;;;;11.48;8.60;;;743.00;204.80;;;;;;5041298;28;20101;-58
2021/03/10 08:39:58;;;;;;;19.38;15.95;;;768.10;204.80;;;;;;5043879;28;20032;-58
2021/03/10 08:42:24;;;;;;;10.05;8.48;;;768.20;204.80;;;;;;5045602;28;20029;-61
2021/03/10 08:44:51;;;;;;;9.35;7.63;;;768.50;204.80;;;;;;5042842;28;20038;-61
2021/03/10 08:47:24;;;;;;;8.93;7.50;;;794.10;230.40;;;;;;5041767;28;20108;-58
2021/03/10 08:49:54;;;;;;;9.40;8.43;;;794.00;230.40;;;;;;5037485;28;20033;-60
2021/03/10 08:52:22;;;;;;;8.80;6.13;;;819.50;230.40;;;;;;5041384;28;20079;-61
2021/03/10 08:54:58;;;;;;;7.70;6.50;;;819.40;230.40;;;;;;5040025;28;20033;-58
2021/03/10 08:57:24;;;;;;;8.30;6.35;;;819.90;230.40;;;;;;5042181;28;20025;-59
2021/03/10 08:59:51;;;;;;;7.28;6.30;;;819.90;230.40;;;;;;5043360;28;20041;-58
2021/03/10 09:02:28;;;;;;;7.63;6.43;;;819.50;230.40;;;;;;5043882;28;20048;-59
2021/03/10 09:04:54;;;;;;;8.40;6.63;;;844.90;256.00;;;;;;5040358;28;20123;-59
2021/03/10 09:07:21;;;;;;;8.80;7.90;;;845.10;256.00;;;;;;5044615;28;20014;-59
2021/03/10 09:09:52;;;;;;;10.50;9.15;;;845.20;256.00;;;;;;5040603;28;20045;-59
2021/03/10 09:12:18;;;;;;;8.80;7.43;;;845.70;256.00;;;;;;5043995;28;20483;-62
2021/03/10 09:14:44;;;;;;;10.65;7.95;;;820.10;230.40;;;;;;5041742;28;20033;-59
2021/03/10 09:17:10;;;;;;;10.82;9.30;;;845.30;256.00;;;;;;5044443;28;20059;-59
2021/03/10 09:19:39;;;;;;;8.77;7.60;;;845.60;256.00;;;;;;5045176;28;20078;-58
2021/03/10 09:22:08;;;;;;;20.67;14.18;;;870.40;256.00;;;;;;5043549;28;20113;-60
2021/03/10 09:24:52;;;;;;;12.25;9.77;;;820.00;230.40;;;;;;5027110;28;20032;-58
2021/03/10 09:27:19;;;;;;;13.70;12.38;;;819.70;230.40;;;;;;5040137;28;20017;-60
2021/03/10 09:29:44;;;;;;;15.93;11.85;;;820.00;230.40;;;;;;5045607;28;20028;-62
2021/03/10 09:32:10;;;;;;;19.58;13.63;;;845.70;256.00;;;;;;5043929;28;20079;-61
2021/03/10 09:34:36;;;;;;;8.38;6.93;;;845.10;256.00;;;;;;5044124;28;20033;-62
2021/03/10 09:37:09;;;;;;;8.63;6.93;;;870.50;256.00;;;;;;5045282;28;20048;-60
2021/03/10 09:39:46;;;;;;;8.10;7.03;;;845.10;256.00;;;;;;5043944;28;20017;-60
2021/03/10 09:42:11;;;;;;;10.45;9.15;;;845.60;256.00;;;;;;5041606;28;20580;-60
2021/03/10 09:44:44;;;;;;;7.70;6.90;;;870.70;256.00;;;;;;5043318;28;20032;-63
2021/03/10 09:47:46;;;;;;;7.90;7.10;;;845.60;256.00;;;;;;5043604;28;20352;-60
2021/03/10 09:50:12;;;;;;;9.90;7.20;;;896.10;256.00;;;;;;5041846;28;20033;-60
2021/03/10 09:52:39;;;;;;;8.38;7.30;;;870.50;256.00;;;;;;5042127;28;20100;-59
2021/03/10 09:55:09;;;;;;;9.25;8.32;;;870.90;256.00;;;;;;5045225;28;20040;-60
2021/03/10 09:57:35;;;;;;;9.60;8.35;;;871.30;256.00;;;;;;5045184;28;20517;-59
2021/03/10 10:00:01;;;;;;;8.02;7.28;;;921.70;281.60;;;;;;5042039;28;20156;-60
2021/03/10 10:02:30;;;;;;;13.35;12.05;;;922.00;281.60;;;;;;5034161;28;20048;-59
2021/03/10 10:05:00;;;;;;;7.93;7.18;;;947.40;281.60;;;;;;5037102;28;20116;-60
2021/03/10 10:07:28;;;;;;;7.38;6.65;;;922.50;281.60;;;;;;5035311;28;20030;-61
2021/03/10 10:09:55;;;;;;;10.73;6.80;;;922.00;281.60;;;;;;5035330;28;20025;-63
2021/03/10 10:12:21;;;;;;;7.70;7.00;;;922.10;281.60;;;;;;5035501;28;20036;-63
2021/03/10 10:14:48;;;;;;;9.10;7.78;;;921.90;281.60;;;;;;5038111;28;20541;-64
2021/03/10 10:17:14;;;;;;;9.77;6.55;;;922.00;281.60;;;;;;5042297;28;20023;-63
2021/03/10 10:19:41;;;;;;;7.65;6.65;;;896.40;256.00;;;;;;5046291;28;20037;-61
2021/03/10 10:22:07;;;;;;;8.75;7.07;;;871.20;256.00;;;;;;5035414;28;20064;-64
2021/03/10 10:24:32;;;;;;;7.45;6.57;;;896.00;256.00;;;;;;5035437;28;20076;-63
2021/03/10 10:26:58;;;;;;;13.05;8.93;;;896.40;256.00;;;;;;5020119;28;20021;-59
2021/03/10 10:29:24;;;;;;;10.20;8.63;;;922.00;281.60;;;;;;5038192;28;20033;-59
2021/03/10 10:31:50;;;;;;;10.50;9.50;;;947.40;281.60;;;;;;5040070;28;20025;-62
2021/03/10 10:34:15;;;;;;;9.60;7.72;;;948.00;281.60;;;;;;5037300;28;20052;-62
2021/03/10 10:36:41;;;;;;;8.82;7.82;;;947.20;281.60;;;;;;5037267;28;20025;-62
2021/03/10 10:39:07;;;;;;;9.32;7.70;;;972.90;307.20;;;;;;5038056;28;20028;-62
2021/03/10 10:41:33;;;;;;;16.10;13.57;;;947.50;281.60;;;;;;5036085;28;20471;-62
2021/03/10 10:43:59;;;;;;;13.23;9.70;;;896.70;256.00;;;;;;5037037;28;20021;-65
2021/03/10 10:46:24;;;;;;;19.02;16.88;;;845.70;256.00;;;;;;5038328;28;20367;-59
2021/03/10 10:48:50;;;;;;;19.65;17.58;;;794.10;230.40;;;;;;5034599;28;20458;-59
2021/03/10 10:51:19;;;;;;;21.08;18.25;;;743.20;204.80;;;;;;5038144;28;20017;-59
2021/03/10 10:53:45;;;;;;;14.60;11.70;;;717.40;179.20;;;;;;5037104;28;20034;-60
2021/03/10 10:56:11;;;;;;;16.20;11.80;;;717.40;179.20;;;;;;5034382;28;20053;-62
2021/03/10 10:58:37;;;;;;;11.13;9.57;;;794.10;230.40;;;;;;5034462;28;20092;-63
2021/03/10 11:01:03;;;;;;;12.90;9.73;;;845.20;256.00;;;;;;5037984;28;20044;-63
2021/03/10 11:03:28;;;;;;;19.38;15.23;;;845.70;256.00;;;;;;5036745;28;20105;-62
2021/03/10 11:05:54;;;;;;;18.40;14.65;;;870.50;256.00;;;;;;5036558;28;20033;-63
2021/03/10 11:08:20;;;;;;;10.82;9.75;;;896.00;256.00;;;;;;5036874;28;20088;-65
2021/03/10 11:10:46;;;;;;;9.68;8.45;;;921.90;281.60;;;;;;5028770;28;20474;-61
2021/03/10 11:13:12;;;;;;;9.98;7.75;;;921.80;281.60;;;;;;5041713;28;20029;-60
2021/03/10 11:15:38;;;;;;;9.48;8.02;;;921.70;281.60;;;;;;5039286;28;20083;-59
2021/03/10 11:18:03;;;;;;;10.57;8.40;;;896.90;256.00;;;;;;5041467;28;20024;-60
2021/03/10 11:20:29;;;;;;;8.95;8.05;;;896.20;256.00;;;;;;5041831;28;20053;-59
2021/03/10 11:22:55;;;;;;;9.02;8.13;;;845.60;256.00;;;;;;5038609;28;20071;-59
2021/03/10 11:25:21;;;;;;;9.93;8.93;;;871.00;256.00;;;;;;5041843;28;20025;-60
2021/03/10 11:27:46;;;;;;;11.70;8.88;;;871.00;256.00;;;;;;5042452;28;20467;-60
2021/03/10 11:30:13;;;;;;;16.77;15.00;;;896.30;256.00;;;;;;5040995;28;20028;-59
2021/03/10 11:32:39;;;;;;;11.77;9.07;;;871.20;256.00;;;;;;5050317;28;20409;-61
2021/03/10 11:35:07;;;;;;;10.35;8.93;;;870.50;256.00;;;;;;5044297;28;20063;-59
2021/03/10 11:37:33;;;;;;;15.98;8.88;;;870.80;256.00;;;;;;5042617;28;20040;-59
2021/03/10 11:40:00;;;;;;;8.98;8.02;;;845.60;256.00;;;;;;5040500;28;20521;-59
2021/03/10 11:42:25;;;;;;;25.77;19.33;;;870.40;256.00;;;;;;5038509;28;20076;-59
2021/03/10 11:44:51;;;;;;;14.48;12.27;;;820.00;230.40;;;;;;5032289;28;20426;-59
2021/03/10 11:47:17;;;;;;;15.00;11.30;;;793.60;230.40;;;;;;5032512;28;20025;-58
2021/03/10 11:49:43;;;;;;;18.95;15.45;;;768.90;204.80;;;;;;5035691;28;20017;-59
2021/03/10 11:52:09;;;;;;;9.15;8.25;;;768.80;204.80;;;;;;5039868;28;20394;-58
2021/03/10 11:54:35;;;;;;;9.98;7.72;;;768.40;204.80;;;;;;5038456;28;20040;-59
2021/03/10 11:57:00;;;;;;;11.27;8.30;;;793.70;230.40;;;;;;5041662;28;20440;-59
2021/03/10 11:59:26;;;;;;;13.35;9.45;;;794.00;230.40;;;;;;5051188;28;20074;-59
2021/03/10 12:01:52;;;;;;;15.07;11.95;;;819.30;230.40;;;;;;5052223;28;20025;-59
2021/03/10 12:04:17;;;;;;;55.20;32.58;;;844.80;256.00;;;;;;5052886;28;20033;-59
2021/03/10 12:06:43;;;;;;;16.83;12.07;;;845.60;256.00;;;;;;5053195;28;20020;-59
2021/03/10 12:09:09;;;;;;;16.48;12.40;;;845.60;256.00;;;;;;5053320;28;20785;-59
2021/03/10 12:11:35;;;;;;;37.47;23.13;;;845.10;256.00;;;;;;5052273;28;20028;-59
2021/03/10 12:14:00;;;;;;;14.68;12.68;;;793.90;230.40;;;;;;5052899;28;20470;-59
2021/03/10 12:16:26;;;;;;;12.57;10.90;;;819.50;230.40;;;;;;5053223;28;20056;-59
2021/03/10 12:18:52;;;;;;;10.18;9.07;;;844.90;256.00;;;;;;5052966;28;20032;-59